AAL239 KSAN-KDEN
Flight info
| Callsign | AAL239 |
|---|---|
| Flight time | 1h 41m |
| Altitude | 35000 |
| Route | ZZOOO4 MTBAL EED J236 TBC CRUDD TBARR4 |
| Aircraft | A321/M-SDE3FGHIRWY/LB1 |
Departure
| Time | 2026-04-26 21:32 |
|---|---|
| Airport | San Diego International Airport (KSAN) |
Arrival
| Time | 2026-04-26 23:13 |
|---|---|
| Airport | Denver International Airport (KDEN) |
| Time | Latitude | Longitude | Altitude | Speed | Heading |
|---|---|---|---|---|---|
| 2026-04-26 20:51 | 32.73338 | -117.20341 | 21 ft | 0 kts | 266° |
| 2026-04-26 20:52 | 32.73337 | -117.20342 | 21 ft | 0 kts | 266° |
| 2026-04-26 21:13 | 32.73339 | -117.20325 | 21 ft | 4 kts | 266° |
| 2026-04-26 21:13 | 32.73340 | -117.20297 | 21 ft | 4 kts | 259° |
| 2026-04-26 21:14 | 32.73349 | -117.20272 | 24 ft | 4 kts | 208° |
| 2026-04-26 21:14 | 32.73371 | -117.20270 | 23 ft | 4 kts | 166° |
| 2026-04-26 21:14 | 32.73397 | -117.20275 | 22 ft | 4 kts | 189° |
| 2026-04-26 21:14 | 32.73419 | -117.20267 | 21 ft | 4 kts | 216° |
| 2026-04-26 21:15 | 32.73436 | -117.20245 | 23 ft | 4 kts | 227° |
| 2026-04-26 21:15 | 32.73433 | -117.20243 | 23 ft | 4 kts | 0° |
| 2026-04-26 21:15 | 32.73459 | -117.20251 | 22 ft | 4 kts | 343° |
| 2026-04-26 21:15 | 32.73458 | -117.20255 | 22 ft | 4 kts | 16° |
| 2026-04-26 21:16 | 32.73433 | -117.20264 | 23 ft | 4 kts | 16° |
| 2026-04-26 21:16 | 32.73424 | -117.20267 | 22 ft | 0 kts | 16° |
| 2026-04-26 21:19 | 32.73430 | -117.20265 | 24 ft | 2 kts | 16° |
| 2026-04-26 21:19 | 32.73444 | -117.20260 | 22 ft | 2 kts | 16° |
| 2026-04-26 21:19 | 32.73461 | -117.20254 | 22 ft | 3 kts | 16° |
| 2026-04-26 21:19 | 32.73501 | -117.20241 | 23 ft | 7 kts | 16° |
| 2026-04-26 21:20 | 32.73542 | -117.20214 | 23 ft | 6 kts | 57° |
| 2026-04-26 21:20 | 32.73540 | -117.20142 | 23 ft | 12 kts | 105° |
| 2026-04-26 21:20 | 32.73515 | -117.20042 | 25 ft | 13 kts | 106° |
| 2026-04-26 21:20 | 32.73490 | -117.19939 | 23 ft | 13 kts | 106° |
| 2026-04-26 21:21 | 32.73466 | -117.19839 | 24 ft | 13 kts | 106° |
| 2026-04-26 21:21 | 32.73441 | -117.19735 | 23 ft | 14 kts | 106° |
| 2026-04-26 21:21 | 32.73414 | -117.19625 | 24 ft | 14 kts | 106° |
| 2026-04-26 21:21 | 32.73387 | -117.19515 | 24 ft | 14 kts | 106° |
| 2026-04-26 21:22 | 32.73361 | -117.19405 | 25 ft | 13 kts | 106° |
| 2026-04-26 21:22 | 32.73334 | -117.19295 | 20 ft | 15 kts | 106° |
| 2026-04-26 21:22 | 32.73304 | -117.19172 | 20 ft | 15 kts | 106° |
| 2026-04-26 21:23 | 32.73251 | -117.18953 | 22 ft | 13 kts | 106° |
| 2026-04-26 21:23 | 32.73225 | -117.18848 | 24 ft | 13 kts | 106° |
| 2026-04-26 21:23 | 32.73201 | -117.18749 | 26 ft | 13 kts | 106° |
| 2026-04-26 21:23 | 32.73176 | -117.18646 | 24 ft | 14 kts | 105° |
| 2026-04-26 21:24 | 32.73154 | -117.18553 | 21 ft | 11 kts | 106° |
| 2026-04-26 21:24 | 32.73130 | -117.18454 | 23 ft | 13 kts | 106° |
| 2026-04-26 21:24 | 32.73105 | -117.18350 | 21 ft | 13 kts | 106° |
| 2026-04-26 21:24 | 32.73078 | -117.18240 | 20 ft | 15 kts | 105° |
| 2026-04-26 21:25 | 32.73049 | -117.18120 | 18 ft | 13 kts | 107° |
| 2026-04-26 21:25 | 32.73022 | -117.18013 | 18 ft | 14 kts | 106° |
| 2026-04-26 21:25 | 32.72996 | -117.17901 | 18 ft | 13 kts | 106° |
| 2026-04-26 21:25 | 32.72975 | -117.17817 | 16 ft | 12 kts | 105° |
| 2026-04-26 21:26 | 32.72955 | -117.17734 | 16 ft | 8 kts | 105° |
| 2026-04-26 21:26 | 32.72950 | -117.17681 | 17 ft | 5 kts | 80° |
| 2026-04-26 21:26 | 32.72954 | -117.17665 | 17 ft | 1 kts | 72° |
| 2026-04-26 21:26 | 32.72954 | -117.17664 | 17 ft | 0 kts | 72° |
| 2026-04-26 21:30 | 32.72964 | -117.17629 | 19 ft | 10 kts | 72° |
| 2026-04-26 21:30 | 32.73005 | -117.17583 | 20 ft | 8 kts | 350° |
| 2026-04-26 21:30 | 32.73036 | -117.17639 | 20 ft | 8 kts | 287° |
| 2026-04-26 21:31 | 32.73038 | -117.17648 | 20 ft | 9 kts | 287° |
| 2026-04-26 21:31 | 32.73130 | -117.18030 | 17 ft | 83 kts | 286° |
| 2026-04-26 21:31 | 32.73348 | -117.18927 | 24 ft | 141 kts | 287° |
| 2026-04-26 21:31 | 32.73649 | -117.20150 | 420 ft | 156 kts | 285° |
| 2026-04-26 21:32 | 32.73943 | -117.21378 | 1252 ft | 154 kts | 285° |
| 2026-04-26 21:32 | 32.74238 | -117.22610 | 1883 ft | 158 kts | 285° |
| 2026-04-26 21:32 | 32.74555 | -117.23934 | 2141 ft | 176 kts | 284° |
| 2026-04-26 21:32 | 32.74912 | -117.25419 | 2321 ft | 198 kts | 285° |
| 2026-04-26 21:33 | 32.75003 | -117.27083 | 2562 ft | 210 kts | 258° |
| 2026-04-26 21:33 | 32.74238 | -117.28639 | 2672 ft | 234 kts | 224° |
| 2026-04-26 21:33 | 32.72731 | -117.29548 | 3016 ft | 256 kts | 192° |
| 2026-04-26 21:33 | 32.70933 | -117.29427 | 3654 ft | 266 kts | 167° |
| 2026-04-26 21:34 | 32.69163 | -117.28697 | 4337 ft | 271 kts | 159° |
| 2026-04-26 21:34 | 32.67569 | -117.27475 | 5013 ft | 278 kts | 136° |
| 2026-04-26 21:34 | 32.66526 | -117.25527 | 5646 ft | 285 kts | 108° |
| 2026-04-26 21:34 | 32.66274 | -117.23223 | 6264 ft | 289 kts | 88° |
| 2026-04-26 21:35 | 32.66308 | -117.20821 | 6863 ft | 293 kts | 88° |
| 2026-04-26 21:35 | 32.66349 | -117.18379 | 7455 ft | 298 kts | 88° |
| 2026-04-26 21:35 | 32.66389 | -117.15903 | 8050 ft | 302 kts | 88° |
| 2026-04-26 21:35 | 32.66426 | -117.13395 | 8663 ft | 306 kts | 88° |
| 2026-04-26 21:36 | 32.66461 | -117.10852 | 9252 ft | 310 kts | 88° |
| 2026-04-26 21:36 | 32.66484 | -117.09108 | 9672 ft | 314 kts | 88° |
| 2026-04-26 21:36 | 32.66526 | -117.05633 | 10217 ft | 328 kts | 88° |
| 2026-04-26 21:36 | 32.66556 | -117.02839 | 10346 ft | 348 kts | 88° |
| 2026-04-26 21:37 | 32.66586 | -116.99891 | 10475 ft | 366 kts | 88° |
| 2026-04-26 21:37 | 32.66618 | -116.96833 | 10832 ft | 375 kts | 88° |
| 2026-04-26 21:37 | 32.66658 | -116.93704 | 11338 ft | 380 kts | 88° |
| 2026-04-26 21:37 | 32.66725 | -116.90562 | 11869 ft | 383 kts | 87° |
| 2026-04-26 21:38 | 32.66810 | -116.87381 | 12399 ft | 386 kts | 87° |
| 2026-04-26 21:38 | 32.66902 | -116.84190 | 12936 ft | 389 kts | 86° |
| 2026-04-26 21:38 | 32.67313 | -116.81015 | 13427 ft | 390 kts | 71° |
| 2026-04-26 21:38 | 32.68340 | -116.78036 | 13926 ft | 389 kts | 57° |
| 2026-04-26 21:39 | 32.69907 | -116.75426 | 14365 ft | 388 kts | 43° |
| 2026-04-26 21:39 | 32.71918 | -116.73326 | 14794 ft | 385 kts | 29° |
| 2026-04-26 21:39 | 32.74264 | -116.71829 | 15218 ft | 382 kts | 17° |
| 2026-04-26 21:39 | 32.76707 | -116.70650 | 15649 ft | 385 kts | 17° |
| 2026-04-26 21:40 | 32.79197 | -116.69442 | 16095 ft | 389 kts | 17° |
| 2026-04-26 21:40 | 32.81720 | -116.68206 | 16535 ft | 393 kts | 17° |
| 2026-04-26 21:40 | 32.84265 | -116.66954 | 16971 ft | 397 kts | 17° |
| 2026-04-26 21:40 | 32.86830 | -116.65690 | 17412 ft | 401 kts | 17° |
| 2026-04-26 21:41 | 32.89416 | -116.64421 | 17843 ft | 404 kts | 17° |
| 2026-04-26 21:41 | 32.91144 | -116.63574 | 18130 ft | 407 kts | 17° |
| 2026-04-26 21:41 | 32.94669 | -116.61847 | 18667 ft | 411 kts | 17° |
| 2026-04-26 21:41 | 32.97327 | -116.60542 | 19047 ft | 415 kts | 17° |
| 2026-04-26 21:42 | 33.00004 | -116.59224 | 19410 ft | 417 kts | 17° |
| 2026-04-26 21:42 | 33.02696 | -116.57882 | 19772 ft | 421 kts | 17° |
| 2026-04-26 21:42 | 33.05397 | -116.56489 | 20141 ft | 423 kts | 18° |
| 2026-04-26 21:42 | 33.08102 | -116.55069 | 20507 ft | 426 kts | 18° |
| 2026-04-26 21:43 | 33.10823 | -116.53628 | 20866 ft | 429 kts | 18° |
| 2026-04-26 21:43 | 33.13551 | -116.52179 | 21210 ft | 431 kts | 18° |
| 2026-04-26 21:43 | 33.16315 | -116.50722 | 21562 ft | 434 kts | 18° |
| 2026-04-26 21:43 | 33.19051 | -116.49288 | 21920 ft | 436 kts | 18° |
| 2026-04-26 21:44 | 33.21841 | -116.47827 | 22265 ft | 439 kts | 18° |
| 2026-04-26 21:44 | 33.24643 | -116.46358 | 22601 ft | 441 kts | 18° |
| 2026-04-26 21:44 | 33.27462 | -116.44877 | 22967 ft | 443 kts | 18° |
| 2026-04-26 21:44 | 33.30290 | -116.43391 | 23319 ft | 445 kts | 19° |
| 2026-04-26 21:45 | 33.33135 | -116.41899 | 23624 ft | 447 kts | 18° |
| 2026-04-26 21:45 | 33.35979 | -116.40357 | 23902 ft | 452 kts | 22° |
| 2026-04-26 21:45 | 33.38692 | -116.38359 | 24132 ft | 462 kts | 32° |
| 2026-04-26 21:45 | 33.41146 | -116.35824 | 24366 ft | 470 kts | 43° |
| 2026-04-26 21:46 | 33.43262 | -116.32799 | 24596 ft | 477 kts | 52° |
| 2026-04-26 21:46 | 33.45176 | -116.29586 | 24838 ft | 481 kts | 52° |
| 2026-04-26 21:46 | 33.47126 | -116.26321 | 25049 ft | 483 kts | 51° |
| 2026-04-26 21:46 | 33.49098 | -116.23025 | 25259 ft | 487 kts | 51° |
| 2026-04-26 21:47 | 33.51086 | -116.19709 | 25471 ft | 491 kts | 51° |
| 2026-04-26 21:47 | 33.53091 | -116.16364 | 25690 ft | 494 kts | 51° |
| 2026-04-26 21:47 | 33.55097 | -116.13012 | 25915 ft | 497 kts | 51° |
| 2026-04-26 21:47 | 33.57121 | -116.09622 | 26145 ft | 500 kts | 51° |
| 2026-04-26 21:48 | 33.58466 | -116.07370 | 26296 ft | 502 kts | 51° |
| 2026-04-26 21:48 | 33.60551 | -116.03995 | 26519 ft | 503 kts | 46° |
| 2026-04-26 21:48 | 33.62879 | -116.00861 | 26758 ft | 504 kts | 43° |
| 2026-04-26 21:48 | 33.66019 | -115.96730 | 27074 ft | 508 kts | 43° |
| 2026-04-26 21:49 | 33.68408 | -115.93587 | 27313 ft | 510 kts | 43° |
| 2026-04-26 21:49 | 33.70029 | -115.91449 | 27481 ft | 512 kts | 43° |
| 2026-04-26 21:49 | 33.72400 | -115.88311 | 27718 ft | 515 kts | 44° |
| 2026-04-26 21:49 | 33.74806 | -115.85116 | 27958 ft | 517 kts | 44° |
| 2026-04-26 21:50 | 33.77220 | -115.81903 | 28192 ft | 519 kts | 44° |
| 2026-04-26 21:50 | 33.79646 | -115.78671 | 28428 ft | 521 kts | 44° |
| 2026-04-26 21:50 | 33.82083 | -115.75424 | 28643 ft | 523 kts | 44° |
| 2026-04-26 21:50 | 33.84525 | -115.72174 | 28882 ft | 525 kts | 43° |
| 2026-04-26 21:51 | 33.86980 | -115.68907 | 29091 ft | 527 kts | 44° |
| 2026-04-26 21:51 | 33.89450 | -115.65618 | 29306 ft | 529 kts | 44° |
| 2026-04-26 21:51 | 33.91919 | -115.62327 | 29521 ft | 531 kts | 44° |
| 2026-04-26 21:51 | 33.94393 | -115.59028 | 29706 ft | 532 kts | 44° |
| 2026-04-26 21:52 | 33.96882 | -115.55699 | 29900 ft | 534 kts | 44° |
| 2026-04-26 21:52 | 33.99369 | -115.52366 | 30084 ft | 535 kts | 44° |
| 2026-04-26 21:52 | 34.01852 | -115.49034 | 30316 ft | 534 kts | 44° |
| 2026-04-26 21:52 | 34.04309 | -115.45736 | 30531 ft | 534 kts | 44° |
| 2026-04-26 21:53 | 34.06792 | -115.42406 | 30745 ft | 534 kts | 44° |
| 2026-04-26 21:53 | 34.09280 | -115.39066 | 30953 ft | 534 kts | 44° |
| 2026-04-26 21:53 | 34.11764 | -115.35736 | 31147 ft | 534 kts | 44° |
| 2026-04-26 21:53 | 34.14255 | -115.32395 | 31348 ft | 534 kts | 44° |
| 2026-04-26 21:54 | 34.16734 | -115.29062 | 31555 ft | 534 kts | 44° |
| 2026-04-26 21:54 | 34.19233 | -115.25692 | 31762 ft | 534 kts | 44° |
| 2026-04-26 21:54 | 34.21694 | -115.22366 | 31961 ft | 535 kts | 44° |
| 2026-04-26 21:54 | 34.24167 | -115.19018 | 32132 ft | 535 kts | 44° |
| 2026-04-26 21:55 | 34.26651 | -115.15653 | 32314 ft | 536 kts | 44° |
| 2026-04-26 21:55 | 34.29124 | -115.12302 | 32497 ft | 536 kts | 44° |
| 2026-04-26 21:55 | 34.31610 | -115.08933 | 32678 ft | 536 kts | 44° |
| 2026-04-26 21:55 | 34.34099 | -115.05560 | 32856 ft | 537 kts | 44° |
| 2026-04-26 21:56 | 34.36604 | -115.02167 | 33023 ft | 538 kts | 44° |
| 2026-04-26 21:56 | 34.39096 | -114.98790 | 33204 ft | 538 kts | 44° |
| 2026-04-26 21:56 | 34.41576 | -114.95423 | 33370 ft | 539 kts | 44° |
| 2026-04-26 21:56 | 34.44049 | -114.92054 | 33540 ft | 539 kts | 44° |
| 2026-04-26 21:57 | 34.46566 | -114.88616 | 33719 ft | 539 kts | 44° |
| 2026-04-26 21:57 | 34.49036 | -114.85235 | 33905 ft | 539 kts | 45° |
| 2026-04-26 21:57 | 34.51531 | -114.81822 | 34057 ft | 539 kts | 44° |
| 2026-04-26 21:57 | 34.54012 | -114.78433 | 34227 ft | 539 kts | 44° |
| 2026-04-26 21:58 | 34.56504 | -114.75029 | 34386 ft | 539 kts | 44° |
| 2026-04-26 21:58 | 34.58988 | -114.71631 | 34566 ft | 538 kts | 44° |
| 2026-04-26 21:58 | 34.61474 | -114.68229 | 34737 ft | 538 kts | 44° |
| 2026-04-26 21:58 | 34.63953 | -114.64833 | 34798 ft | 537 kts | 45° |
| 2026-04-26 21:59 | 34.68885 | -114.58060 | 34806 ft | 536 kts | 45° |
| 2026-04-26 21:59 | 34.73822 | -114.51255 | 34805 ft | 535 kts | 45° |
| 2026-04-26 22:00 | 34.78173 | -114.43901 | 34789 ft | 539 kts | 60° |
| 2026-04-26 22:00 | 34.81725 | -114.35835 | 34768 ft | 540 kts | 60° |
| 2026-04-26 22:01 | 34.85274 | -114.27814 | 34756 ft | 540 kts | 60° |
| 2026-04-26 22:01 | 34.88824 | -114.19761 | 34750 ft | 540 kts | 60° |
| 2026-04-26 22:02 | 34.92366 | -114.11683 | 34751 ft | 541 kts | 61° |
| 2026-04-26 22:02 | 34.95912 | -114.03596 | 34775 ft | 540 kts | 60° |
| 2026-04-26 22:03 | 34.99454 | -113.95505 | 34794 ft | 540 kts | 61° |
| 2026-04-26 22:03 | 35.02973 | -113.87424 | 34807 ft | 540 kts | 61° |
| 2026-04-26 22:04 | 35.06502 | -113.79306 | 34805 ft | 540 kts | 61° |
| 2026-04-26 22:04 | 35.10026 | -113.71201 | 34804 ft | 541 kts | 61° |
| 2026-04-26 22:05 | 35.13543 | -113.63094 | 34788 ft | 541 kts | 61° |
| 2026-04-26 22:05 | 35.17040 | -113.54993 | 34769 ft | 540 kts | 61° |
| 2026-04-26 22:06 | 35.20540 | -113.46861 | 34749 ft | 540 kts | 61° |
| 2026-04-26 22:06 | 35.24037 | -113.38727 | 34756 ft | 540 kts | 61° |
| 2026-04-26 22:07 | 35.27530 | -113.30596 | 34750 ft | 540 kts | 62° |
| 2026-04-26 22:07 | 35.31012 | -113.22436 | 34759 ft | 540 kts | 62° |
| 2026-04-26 22:08 | 35.34491 | -113.14282 | 34764 ft | 540 kts | 62° |
| 2026-04-26 22:08 | 35.37950 | -113.06176 | 34773 ft | 540 kts | 62° |
| 2026-04-26 22:09 | 35.41418 | -112.98017 | 34778 ft | 540 kts | 62° |
| 2026-04-26 22:09 | 35.44877 | -112.89846 | 34783 ft | 540 kts | 62° |
| 2026-04-26 22:10 | 35.48338 | -112.81656 | 34776 ft | 540 kts | 62° |
| 2026-04-26 22:10 | 35.51799 | -112.73466 | 34783 ft | 540 kts | 62° |
| 2026-04-26 22:11 | 35.55254 | -112.65264 | 34783 ft | 541 kts | 62° |
| 2026-04-26 22:11 | 35.58690 | -112.57046 | 34790 ft | 541 kts | 62° |
| 2026-04-26 22:12 | 35.62128 | -112.48818 | 34784 ft | 541 kts | 62° |
| 2026-04-26 22:12 | 35.65573 | -112.40585 | 34784 ft | 541 kts | 62° |
| 2026-04-26 22:13 | 35.69009 | -112.32350 | 34803 ft | 541 kts | 62° |
| 2026-04-26 22:13 | 35.72416 | -112.24157 | 34832 ft | 541 kts | 62° |
| 2026-04-26 22:14 | 35.75851 | -112.15848 | 34843 ft | 541 kts | 62° |
| 2026-04-26 22:14 | 35.79237 | -112.07643 | 34854 ft | 541 kts | 62° |
| 2026-04-26 22:15 | 35.82651 | -111.99366 | 34845 ft | 541 kts | 62° |
| 2026-04-26 22:15 | 35.86049 | -111.91109 | 34830 ft | 540 kts | 62° |
| 2026-04-26 22:16 | 35.89442 | -111.82837 | 34788 ft | 540 kts | 63° |
| 2026-04-26 22:16 | 35.92817 | -111.74565 | 34751 ft | 539 kts | 63° |
| 2026-04-26 22:17 | 35.96193 | -111.66309 | 34703 ft | 538 kts | 62° |
| 2026-04-26 22:17 | 35.99562 | -111.58046 | 34698 ft | 538 kts | 63° |
| 2026-04-26 22:18 | 36.02919 | -111.49779 | 34680 ft | 538 kts | 63° |
| 2026-04-26 22:18 | 36.06268 | -111.41503 | 34677 ft | 538 kts | 63° |
| 2026-04-26 22:19 | 36.09592 | -111.33273 | 34671 ft | 539 kts | 63° |
| 2026-04-26 22:19 | 36.12950 | -111.24972 | 34671 ft | 539 kts | 62° |
| 2026-04-26 22:20 | 36.15921 | -111.18190 | 34669 ft | 539 kts | 59° |
| 2026-04-26 22:20 | 36.20327 | -111.08826 | 34669 ft | 539 kts | 58° |
| 2026-04-26 22:21 | 36.24066 | -111.00785 | 34668 ft | 539 kts | 59° |
| 2026-04-26 22:21 | 36.27709 | -110.92669 | 34680 ft | 539 kts | 60° |
| 2026-04-26 22:22 | 36.31329 | -110.84529 | 34714 ft | 539 kts | 60° |
| 2026-04-26 22:22 | 36.34947 | -110.76448 | 34733 ft | 539 kts | 59° |
| 2026-04-26 22:23 | 36.38603 | -110.68328 | 34736 ft | 538 kts | 59° |
| 2026-04-26 22:23 | 36.42246 | -110.60199 | 34737 ft | 538 kts | 59° |
| 2026-04-26 22:24 | 36.45870 | -110.52065 | 34730 ft | 538 kts | 60° |
| 2026-04-26 22:24 | 36.49474 | -110.43936 | 34733 ft | 537 kts | 60° |
| 2026-04-26 22:25 | 36.53072 | -110.35801 | 34727 ft | 536 kts | 60° |
| 2026-04-26 22:25 | 36.56645 | -110.27727 | 34734 ft | 536 kts | 60° |
| 2026-04-26 22:26 | 36.60237 | -110.19611 | 34722 ft | 535 kts | 60° |
| 2026-04-26 22:26 | 36.63820 | -110.11477 | 34725 ft | 535 kts | 60° |
| 2026-04-26 22:27 | 36.67394 | -110.03344 | 34713 ft | 535 kts | 60° |
| 2026-04-26 22:27 | 36.70954 | -109.95211 | 34722 ft | 535 kts | 60° |
| 2026-04-26 22:28 | 36.74510 | -109.87070 | 34713 ft | 535 kts | 60° |
| 2026-04-26 22:28 | 36.78059 | -109.78913 | 34718 ft | 534 kts | 60° |
| 2026-04-26 22:29 | 36.81604 | -109.70752 | 34711 ft | 534 kts | 60° |
| 2026-04-26 22:29 | 36.85140 | -109.62608 | 34720 ft | 534 kts | 60° |
| 2026-04-26 22:30 | 36.88670 | -109.54438 | 34715 ft | 534 kts | 60° |
| 2026-04-26 22:30 | 36.92195 | -109.46280 | 34723 ft | 534 kts | 60° |
| 2026-04-26 22:31 | 36.95711 | -109.38114 | 34714 ft | 533 kts | 60° |
| 2026-04-26 22:31 | 36.99202 | -109.29984 | 34730 ft | 533 kts | 60° |
| 2026-04-26 22:32 | 37.02699 | -109.21805 | 34727 ft | 533 kts | 61° |
| 2026-04-26 22:32 | 37.06194 | -109.13623 | 34732 ft | 533 kts | 61° |
| 2026-04-26 22:33 | 37.11425 | -109.01338 | 34740 ft | 533 kts | 61° |
| 2026-04-26 22:34 | 37.14908 | -108.93139 | 34780 ft | 533 kts | 61° |
| 2026-04-26 22:34 | 37.18386 | -108.84933 | 34817 ft | 533 kts | 61° |
| 2026-04-26 22:35 | 37.21833 | -108.76764 | 34837 ft | 533 kts | 61° |
| 2026-04-26 22:35 | 37.25295 | -108.68531 | 34855 ft | 533 kts | 61° |
| 2026-04-26 22:36 | 37.28198 | -108.61625 | 34853 ft | 534 kts | 61° |
| 2026-04-26 22:36 | 37.31656 | -108.53363 | 34848 ft | 534 kts | 61° |
| 2026-04-26 22:37 | 37.35108 | -108.45102 | 34839 ft | 534 kts | 61° |
| 2026-04-26 22:37 | 37.38547 | -108.36870 | 34833 ft | 534 kts | 61° |
| 2026-04-26 22:38 | 37.41997 | -108.28578 | 34822 ft | 534 kts | 60° |
| 2026-04-26 22:38 | 37.45441 | -108.20292 | 34809 ft | 534 kts | 61° |
| 2026-04-26 22:39 | 37.48873 | -108.12003 | 34817 ft | 534 kts | 61° |
| 2026-04-26 22:39 | 37.52300 | -108.03705 | 34822 ft | 534 kts | 61° |
| 2026-04-26 22:40 | 37.55709 | -107.95416 | 34832 ft | 533 kts | 61° |
| 2026-04-26 22:40 | 37.59098 | -107.87158 | 34844 ft | 533 kts | 61° |
| 2026-04-26 22:41 | 37.62501 | -107.78860 | 34856 ft | 532 kts | 61° |
| 2026-04-26 22:41 | 37.65894 | -107.70558 | 34859 ft | 532 kts | 61° |
| 2026-04-26 22:42 | 37.69276 | -107.62244 | 34858 ft | 532 kts | 61° |
| 2026-04-26 22:42 | 37.72648 | -107.53937 | 34845 ft | 531 kts | 60° |
| 2026-04-26 22:43 | 37.76742 | -107.46297 | 34834 ft | 522 kts | 43° |
| 2026-04-26 22:43 | 37.81933 | -107.39966 | 34824 ft | 517 kts | 38° |
| 2026-04-26 22:44 | 37.87157 | -107.33803 | 34819 ft | 516 kts | 38° |
| 2026-04-26 22:44 | 37.92401 | -107.27603 | 34798 ft | 516 kts | 38° |
| 2026-04-26 22:45 | 37.97644 | -107.21383 | 34786 ft | 515 kts | 38° |
| 2026-04-26 22:45 | 38.02879 | -107.15167 | 34774 ft | 514 kts | 38° |
| 2026-04-26 22:46 | 38.08104 | -107.08959 | 34766 ft | 514 kts | 38° |
| 2026-04-26 22:46 | 38.13282 | -107.02771 | 34753 ft | 514 kts | 38° |
| 2026-04-26 22:47 | 38.18071 | -106.95968 | 34749 ft | 518 kts | 46° |
| 2026-04-26 22:47 | 38.22702 | -106.88935 | 34764 ft | 518 kts | 46° |
| 2026-04-26 22:48 | 38.27336 | -106.81905 | 34779 ft | 517 kts | 46° |
| 2026-04-26 22:48 | 38.31952 | -106.74874 | 34785 ft | 517 kts | 46° |
| 2026-04-26 22:49 | 38.36563 | -106.67821 | 34785 ft | 517 kts | 46° |
| 2026-04-26 22:49 | 38.41165 | -106.60775 | 34770 ft | 517 kts | 46° |
| 2026-04-26 22:50 | 38.45762 | -106.53734 | 34753 ft | 516 kts | 46° |
| 2026-04-26 22:50 | 38.50325 | -106.46713 | 34732 ft | 516 kts | 46° |
| 2026-04-26 22:51 | 38.54895 | -106.39675 | 34482 ft | 509 kts | 46° |
| 2026-04-26 22:51 | 38.57145 | -106.36203 | 34253 ft | 505 kts | 46° |
| 2026-04-26 22:51 | 38.59377 | -106.32755 | 34013 ft | 502 kts | 46° |
| 2026-04-26 22:51 | 38.61595 | -106.29326 | 33570 ft | 500 kts | 46° |
| 2026-04-26 22:52 | 38.63807 | -106.25900 | 32976 ft | 498 kts | 47° |
| 2026-04-26 22:52 | 38.66006 | -106.22492 | 32483 ft | 495 kts | 47° |
| 2026-04-26 22:52 | 38.68194 | -106.19120 | 32022 ft | 490 kts | 46° |
| 2026-04-26 22:52 | 38.70345 | -106.15834 | 31555 ft | 486 kts | 46° |
| 2026-04-26 22:53 | 38.72511 | -106.12538 | 31085 ft | 482 kts | 46° |
| 2026-04-26 22:53 | 38.74662 | -106.09261 | 30600 ft | 478 kts | 46° |
| 2026-04-26 22:53 | 38.76792 | -106.06008 | 30139 ft | 474 kts | 47° |
| 2026-04-26 22:53 | 38.78897 | -106.02779 | 29637 ft | 471 kts | 47° |
| 2026-04-26 22:54 | 38.80982 | -105.99571 | 29174 ft | 465 kts | 47° |
| 2026-04-26 22:54 | 38.83037 | -105.96406 | 28706 ft | 459 kts | 47° |
| 2026-04-26 22:54 | 38.85076 | -105.93262 | 28262 ft | 454 kts | 47° |
| 2026-04-26 22:54 | 38.87080 | -105.90169 | 27832 ft | 448 kts | 47° |
| 2026-04-26 22:55 | 38.89064 | -105.87111 | 27395 ft | 443 kts | 47° |
| 2026-04-26 22:55 | 38.91021 | -105.84092 | 26977 ft | 437 kts | 47° |
| 2026-04-26 22:55 | 38.92951 | -105.81106 | 26564 ft | 433 kts | 47° |
| 2026-04-26 22:55 | 38.94861 | -105.78144 | 26157 ft | 428 kts | 47° |
| 2026-04-26 22:56 | 38.96743 | -105.75211 | 25749 ft | 424 kts | 47° |
| 2026-04-26 22:56 | 38.98607 | -105.72300 | 25341 ft | 419 kts | 47° |
| 2026-04-26 22:56 | 39.00453 | -105.69422 | 24949 ft | 415 kts | 47° |
| 2026-04-26 22:56 | 39.02287 | -105.66566 | 24554 ft | 412 kts | 47° |
| 2026-04-26 22:57 | 39.04105 | -105.63737 | 24144 ft | 409 kts | 47° |
| 2026-04-26 22:57 | 39.05911 | -105.60925 | 23741 ft | 406 kts | 47° |
| 2026-04-26 22:57 | 39.07678 | -105.58169 | 23331 ft | 403 kts | 47° |
| 2026-04-26 22:57 | 39.09453 | -105.55394 | 22881 ft | 400 kts | 48° |
| 2026-04-26 22:58 | 39.11210 | -105.52645 | 22469 ft | 395 kts | 48° |
| 2026-04-26 22:58 | 39.12943 | -105.49928 | 22051 ft | 390 kts | 48° |
| 2026-04-26 22:58 | 39.14657 | -105.47243 | 21650 ft | 386 kts | 48° |
| 2026-04-26 22:58 | 39.16357 | -105.44573 | 21199 ft | 386 kts | 49° |
| 2026-04-26 22:59 | 39.18051 | -105.41890 | 20738 ft | 385 kts | 49° |
| 2026-04-26 22:59 | 39.19731 | -105.39219 | 20288 ft | 382 kts | 49° |
| 2026-04-26 22:59 | 39.21401 | -105.36558 | 19841 ft | 380 kts | 49° |
| 2026-04-26 22:59 | 39.23060 | -105.33908 | 19401 ft | 378 kts | 49° |
| 2026-04-26 23:00 | 39.24705 | -105.31279 | 19033 ft | 373 kts | 49° |
| 2026-04-26 23:00 | 39.26309 | -105.28716 | 18563 ft | 365 kts | 50° |
| 2026-04-26 23:00 | 39.27704 | -105.26018 | 18106 ft | 360 kts | 62° |
| 2026-04-26 23:00 | 39.28643 | -105.23035 | 17755 ft | 357 kts | 75° |
| 2026-04-26 23:01 | 39.29123 | -105.19904 | 17490 ft | 355 kts | 83° |
| 2026-04-26 23:01 | 39.29490 | -105.16756 | 17084 ft | 353 kts | 83° |
| 2026-04-26 23:01 | 39.29858 | -105.13629 | 16680 ft | 352 kts | 83° |
| 2026-04-26 23:01 | 39.30226 | -105.10523 | 16275 ft | 349 kts | 83° |
| 2026-04-26 23:02 | 39.30589 | -105.07438 | 15875 ft | 347 kts | 83° |
| 2026-04-26 23:02 | 39.30948 | -105.04375 | 15471 ft | 344 kts | 83° |
| 2026-04-26 23:02 | 39.31303 | -105.01339 | 15078 ft | 340 kts | 83° |
| 2026-04-26 23:02 | 39.31712 | -104.98330 | 14602 ft | 341 kts | 80° |
| 2026-04-26 23:03 | 39.32221 | -104.95395 | 14353 ft | 335 kts | 78° |
| 2026-04-26 23:03 | 39.32776 | -104.92525 | 14359 ft | 324 kts | 77° |
| 2026-04-26 23:03 | 39.33334 | -104.89723 | 14087 ft | 320 kts | 77° |
| 2026-04-26 23:03 | 39.33893 | -104.86984 | 13964 ft | 310 kts | 75° |
| 2026-04-26 23:04 | 39.34524 | -104.84338 | 13979 ft | 308 kts | 73° |
| 2026-04-26 23:04 | 39.35205 | -104.81701 | 13985 ft | 309 kts | 72° |
| 2026-04-26 23:04 | 39.35898 | -104.79075 | 13983 ft | 309 kts | 72° |
| 2026-04-26 23:04 | 39.36590 | -104.76446 | 13992 ft | 309 kts | 72° |
| 2026-04-26 23:05 | 39.37287 | -104.73819 | 14000 ft | 309 kts | 70° |
| 2026-04-26 23:05 | 39.38148 | -104.71278 | 13987 ft | 309 kts | 61° |
| 2026-04-26 23:05 | 39.39437 | -104.69053 | 14013 ft | 307 kts | 42° |
| 2026-04-26 23:05 | 39.41116 | -104.67418 | 13992 ft | 300 kts | 25° |
| 2026-04-26 23:06 | 39.43000 | -104.66426 | 13949 ft | 295 kts | 10° |
| 2026-04-26 23:06 | 39.45014 | -104.66060 | 13361 ft | 294 kts | 354° |
| 2026-04-26 23:06 | 39.46397 | -104.66191 | 12812 ft | 297 kts | 347° |
| 2026-04-26 23:06 | 39.46729 | -104.66248 | 12708 ft | 297 kts | 347° |
| 2026-04-26 23:07 | 39.48758 | -104.66494 | 12080 ft | 290 kts | 354° |
| 2026-04-26 23:07 | 39.49788 | -104.66494 | 11851 ft | 283 kts | 357° |
| 2026-04-26 23:07 | 39.52375 | -104.66420 | 11339 ft | 279 kts | 357° |
| 2026-04-26 23:07 | 39.54307 | -104.66391 | 10963 ft | 276 kts | 356° |
| 2026-04-26 23:08 | 39.56221 | -104.66371 | 10608 ft | 273 kts | 356° |
| 2026-04-26 23:08 | 39.58117 | -104.66350 | 10246 ft | 271 kts | 357° |
| 2026-04-26 23:08 | 39.59968 | -104.66327 | 9904 ft | 260 kts | 357° |
| 2026-04-26 23:08 | 39.61739 | -104.66305 | 9579 ft | 249 kts | 357° |
| 2026-04-26 23:09 | 39.63437 | -104.66285 | 9262 ft | 238 kts | 357° |
| 2026-04-26 23:09 | 39.65046 | -104.66265 | 8940 ft | 224 kts | 358° |
| 2026-04-26 23:09 | 39.66558 | -104.66247 | 8633 ft | 210 kts | 358° |
| 2026-04-26 23:09 | 39.67961 | -104.66230 | 8376 ft | 194 kts | 357° |
| 2026-04-26 23:10 | 39.69268 | -104.66214 | 8112 ft | 182 kts | 358° |
| 2026-04-26 23:10 | 39.70501 | -104.66200 | 7878 ft | 176 kts | 358° |
| 2026-04-26 23:10 | 39.71716 | -104.66187 | 7648 ft | 174 kts | 358° |
| 2026-04-26 23:10 | 39.72917 | -104.66173 | 7422 ft | 172 kts | 358° |
| 2026-04-26 23:11 | 39.74119 | -104.66159 | 7196 ft | 169 kts | 359° |
| 2026-04-26 23:11 | 39.75294 | -104.66145 | 6978 ft | 168 kts | 360° |
| 2026-04-26 23:11 | 39.76455 | -104.66131 | 6760 ft | 166 kts | 0° |
| 2026-04-26 23:11 | 39.77590 | -104.66118 | 6572 ft | 165 kts | 1° |
| 2026-04-26 23:12 | 39.78710 | -104.66104 | 6351 ft | 165 kts | 2° |
| 2026-04-26 23:12 | 39.79864 | -104.66098 | 6112 ft | 168 kts | 1° |
| 2026-04-26 23:12 | 39.81048 | -104.66094 | 5857 ft | 172 kts | 4° |
| 2026-04-26 23:12 | 39.82240 | -104.66076 | 5607 ft | 171 kts | 6° |
| 2026-04-26 23:13 | 39.83436 | -104.66057 | 5438 ft | 168 kts | 5° |
| 2026-04-26 23:13 | 39.84401 | -104.66029 | 5411 ft | 97 kts | 359° |
| 2026-04-26 23:13 | 39.84856 | -104.66030 | 5405 ft | 45 kts | 0° |
| 2026-04-26 23:13 | 39.85140 | -104.66064 | 5402 ft | 36 kts | 345° |
| 2026-04-26 23:14 | 39.85274 | -104.66141 | 5390 ft | 17 kts | 331° |
| 2026-04-26 23:14 | 39.85358 | -104.66202 | 5389 ft | 10 kts | 331° |
| 2026-04-26 23:14 | 39.85417 | -104.66233 | 5394 ft | 9 kts | 346° |
| 2026-04-26 23:14 | 39.85461 | -104.66238 | 5393 ft | 6 kts | 0° |
| 2026-04-26 23:15 | 39.85507 | -104.66238 | 5397 ft | 5 kts | 0° |
| 2026-04-26 23:15 | 39.85519 | -104.66238 | 5393 ft | 0 kts | 0° |
| 2026-04-26 23:15 | 39.85536 | -104.66238 | 5392 ft | 5 kts | 0° |
| 2026-04-26 23:15 | 39.85577 | -104.66262 | 5394 ft | 9 kts | 304° |
| 2026-04-26 23:16 | 39.85584 | -104.66331 | 5391 ft | 8 kts | 270° |
| 2026-04-26 23:16 | 39.85584 | -104.66435 | 5386 ft | 15 kts | 271° |
| 2026-04-26 23:16 | 39.85586 | -104.66559 | 5382 ft | 14 kts | 270° |
| 2026-04-26 23:16 | 39.85586 | -104.66664 | 5382 ft | 12 kts | 270° |
| 2026-04-26 23:17 | 39.85586 | -104.66766 | 5382 ft | 12 kts | 270° |
| 2026-04-26 23:17 | 39.85586 | -104.66861 | 5382 ft | 10 kts | 270° |
| 2026-04-26 23:17 | 39.85586 | -104.66925 | 5382 ft | 5 kts | 270° |
| 2026-04-26 23:17 | 39.85586 | -104.66978 | 5382 ft | 4 kts | 270° |
| 2026-04-26 23:18 | 39.85575 | -104.67020 | 5381 ft | 6 kts | 240° |
| 2026-04-26 23:18 | 39.85542 | -104.67066 | 5379 ft | 8 kts | 225° |
| 2026-04-26 23:18 | 39.85526 | -104.67130 | 5383 ft | 7 kts | 267° |
| 2026-04-26 23:18 | 39.85525 | -104.67206 | 5383 ft | 10 kts | 270° |
| 2026-04-26 23:19 | 39.85519 | -104.67263 | 5383 ft | 4 kts | 231° |
| 2026-04-26 23:19 | 39.85488 | -104.67276 | 5383 ft | 5 kts | 188° |
| 2026-04-26 23:19 | 39.85466 | -104.67280 | 5383 ft | 2 kts | 188° |
| 2026-04-26 23:19 | 39.85461 | -104.67282 | 5383 ft | 0 kts | 188° |
| 2026-04-26 23:20 | 39.85457 | -104.67282 | 5383 ft | 0 kts | 188° |
| 2026-04-26 23:20 | 39.85453 | -104.67283 | 5383 ft | 1 kts | 188° |
| 2026-04-26 23:20 | 39.85450 | -104.67284 | 5381 ft | 0 kts | 188° |
| 2026-04-26 23:20 | 39.85447 | -104.67284 | 5382 ft | 0 kts | 188° |